sensor_id;sensor_type;location;lat;lon;timestamp;pressure;altitude;pressure_sealevel;temperature;humidity
55456;BME280;63021;52.836;6.376;2023-01-25T00:01:17;103935.00;;;0.99;79.43
55456;BME280;63021;52.836;6.376;2023-01-25T00:03:43;103931.50;;;1.00;79.22
55456;BME280;63021;52.836;6.376;2023-01-25T00:06:08;103932.38;;;0.97;79.01
55456;BME280;63021;52.836;6.376;2023-01-25T00:08:33;103931.50;;;0.97;79.53
55456;BME280;63021;52.836;6.376;2023-01-25T00:10:59;103926.28;;;0.97;79.08
55456;BME280;63021;52.836;6.376;2023-01-25T00:13:25;103932.38;;;0.97;79.58
55456;BME280;63021;52.836;6.376;2023-01-25T00:15:50;103922.78;;;0.96;78.67
55456;BME280;63021;52.836;6.376;2023-01-25T00:18:16;103928.88;;;0.97;79.63
55456;BME280;63021;52.836;6.376;2023-01-25T00:20:41;103928.03;;;0.96;79.65
55456;BME280;63021;52.836;6.376;2023-01-25T00:23:07;103917.53;;;0.96;79.36
55456;BME280;63021;52.836;6.376;2023-01-25T00:25:32;103925.38;;;0.95;79.99
55456;BME280;63021;52.836;6.376;2023-01-25T00:27:57;103927.13;;;0.96;79.09
55456;BME280;63021;52.836;6.376;2023-01-25T00:30:23;103920.16;;;0.93;79.63
55456;BME280;63021;52.836;6.376;2023-01-25T00:33:01;103928.03;;;0.93;79.28
55456;BME280;63021;52.836;6.376;2023-01-25T00:35:30;103915.81;;;0.92;79.07
55456;BME280;63021;52.836;6.376;2023-01-25T00:38:00;103921.06;;;0.91;79.30
55456;BME280;63021;52.836;6.376;2023-01-25T00:40:26;103921.94;;;0.86;79.17
55456;BME280;63021;52.836;6.376;2023-01-25T00:42:51;103917.59;;;0.82;79.41
55456;BME280;63021;52.836;6.376;2023-01-25T00:45:16;103916.72;;;0.82;79.68
55456;BME280;63021;52.836;6.376;2023-01-25T00:47:43;103924.56;;;0.82;78.59
55456;BME280;63021;52.836;6.376;2023-01-25T00:50:09;103915.84;;;0.80;79.25
55456;BME280;63021;52.836;6.376;2023-01-25T00:52:34;103916.72;;;0.80;79.75
55456;BME280;63021;52.836;6.376;2023-01-25T00:55:00;103915.00;;;0.79;79.02
55456;BME280;63021;52.836;6.376;2023-01-25T00:57:25;103906.25;;;0.79;78.81
55456;BME280;63021;52.836;6.376;2023-01-25T00:59:51;103905.38;;;0.78;79.16
55456;BME280;63021;52.836;6.376;2023-01-25T01:02:16;103908.84;;;0.79;79.15
55456;BME280;63021;52.836;6.376;2023-01-25T01:04:42;103906.22;;;0.80;78.97
55456;BME280;63021;52.836;6.376;2023-01-25T01:07:07;103894.88;;;0.80;79.11
55456;BME280;63021;52.836;6.376;2023-01-25T01:09:33;103891.38;;;0.81;79.27
55456;BME280;63021;52.836;6.376;2023-01-25T01:11:59;103895.75;;;0.80;79.33
55456;BME280;63021;52.836;6.376;2023-01-25T01:14:26;103887.88;;;0.80;78.91
55456;BME280;63021;52.836;6.376;2023-01-25T01:16:52;103895.75;;;0.79;79.02
55456;BME280;63021;52.836;6.376;2023-01-25T01:19:18;103892.25;;;0.78;79.23
55456;BME280;63021;52.836;6.376;2023-01-25T01:21:43;103895.75;;;0.80;78.92
55456;BME280;63021;52.836;6.376;2023-01-25T01:24:09;103889.63;;;0.80;79.78
55456;BME280;63021;52.836;6.376;2023-01-25T01:26:35;103887.03;;;0.78;79.77
55456;BME280;63021;52.836;6.376;2023-01-25T01:29:00;103899.25;;;0.79;79.56
55456;BME280;63021;52.836;6.376;2023-01-25T01:31:26;103892.25;;;0.78;79.57
55456;BME280;63021;52.836;6.376;2023-01-25T01:33:53;103891.41;;;0.79;79.13
55456;BME280;63021;52.836;6.376;2023-01-25T01:36:21;103886.16;;;0.78;78.90
55456;BME280;63021;52.836;6.376;2023-01-25T01:38:47;103884.41;;;0.77;79.11
55456;BME280;63021;52.836;6.376;2023-01-25T01:41:13;103879.19;;;0.75;79.71
55456;BME280;63021;52.836;6.376;2023-01-25T01:43:38;103882.66;;;0.74;78.65
55456;BME280;63021;52.836;6.376;2023-01-25T01:46:22;103880.91;;;0.73;78.77
55456;BME280;63021;52.836;6.376;2023-01-25T01:49:22;103886.16;;;0.73;79.35
55456;BME280;63021;52.836;6.376;2023-01-25T01:52:01;103880.06;;;0.73;79.41
55456;BME280;63021;52.836;6.376;2023-01-25T01:54:35;103883.53;;;0.72;79.09
55456;BME280;63021;52.836;6.376;2023-01-25T01:57:09;103881.84;;;0.69;79.06
55456;BME280;63021;52.836;6.376;2023-01-25T01:59:43;103872.22;;;0.69;79.05
55456;BME280;63021;52.836;6.376;2023-01-25T02:02:11;103867.84;;;0.65;78.61
55456;BME280;63021;52.836;6.376;2023-01-25T02:04:37;103871.34;;;0.66;78.92
55456;BME280;63021;52.836;6.376;2023-01-25T02:07:10;103870.47;;;0.67;79.36
55456;BME280;63021;52.836;6.376;2023-01-25T02:09:39;103872.22;;;0.66;78.85
55456;BME280;63021;52.836;6.376;2023-01-25T02:12:05;103875.72;;;0.65;79.52
55456;BME280;63021;52.836;6.376;2023-01-25T02:14:32;103873.97;;;0.63;78.79
55456;BME280;63021;52.836;6.376;2023-01-25T02:16:58;103867.91;;;0.59;78.95
55456;BME280;63021;52.836;6.376;2023-01-25T02:19:53;103869.63;;;0.59;78.48
55456;BME280;63021;52.836;6.376;2023-01-25T02:22:24;103860.91;;;0.55;79.08
55456;BME280;63021;52.836;6.376;2023-01-25T02:25:09;103861.78;;;0.54;79.01
55456;BME280;63021;52.836;6.376;2023-01-25T02:27:41;103856.56;;;0.51;79.27
55456;BME280;63021;52.836;6.376;2023-01-25T02:30:08;103860.94;;;0.50;78.97
55456;BME280;63021;52.836;6.376;2023-01-25T02:32:34;103848.72;;;0.49;78.87
55456;BME280;63021;52.836;6.376;2023-01-25T02:34:59;103853.97;;;0.49;79.24
55456;BME280;63021;52.836;6.376;2023-01-25T02:37:25;103850.47;;;0.50;79.38
55456;BME280;63021;52.836;6.376;2023-01-25T02:39:51;103850.47;;;0.49;79.65
55456;BME280;63021;52.836;6.376;2023-01-25T02:42:16;103839.09;;;0.50;79.72
55456;BME280;63021;52.836;6.376;2023-01-25T02:44:42;103837.34;;;0.50;78.75
55456;BME280;63021;52.836;6.376;2023-01-25T02:47:08;103837.34;;;0.46;79.08
55456;BME280;63021;52.836;6.376;2023-01-25T02:49:35;103837.34;;;0.46;78.80
55456;BME280;63021;52.836;6.376;2023-01-25T02:52:01;103836.50;;;0.45;79.60
55456;BME280;63021;52.836;6.376;2023-01-25T02:54:26;103839.13;;;0.45;78.96
55456;BME280;63021;52.836;6.376;2023-01-25T02:56:52;103824.25;;;0.44;79.45
55456;BME280;63021;52.836;6.376;2023-01-25T02:59:17;103829.50;;;0.44;78.72
55456;BME280;63021;52.836;6.376;2023-01-25T03:01:43;103827.78;;;0.43;79.24
55456;BME280;63021;52.836;6.376;2023-01-25T03:04:09;103832.13;;;0.43;79.24
55456;BME280;63021;52.836;6.376;2023-01-25T03:06:36;103815.56;;;0.42;78.92
55456;BME280;63021;52.836;6.376;2023-01-25T03:09:03;103817.31;;;0.37;78.86
55456;BME280;63021;52.836;6.376;2023-01-25T03:11:29;103817.31;;;0.36;79.76
55456;BME280;63021;52.836;6.376;2023-01-25T03:13:55;103812.97;;;0.36;78.93
55456;BME280;63021;52.836;6.376;2023-01-25T03:16:20;103819.94;;;0.36;79.14
55456;BME280;63021;52.836;6.376;2023-01-25T03:18:45;103810.34;;;0.34;78.73
55456;BME280;63021;52.836;6.376;2023-01-25T03:21:12;103801.63;;;0.32;79.43
55456;BME280;63021;52.836;6.376;2023-01-25T03:23:39;103796.38;;;0.31;79.20
55456;BME280;63021;52.836;6.376;2023-01-25T03:26:18;103788.53;;;0.31;78.58
55456;BME280;63021;52.836;6.376;2023-01-25T03:28:44;103796.41;;;0.28;79.62
55456;BME280;63021;52.836;6.376;2023-01-25T03:31:11;103795.53;;;0.29;79.39
55456;BME280;63021;52.836;6.376;2023-01-25T03:33:37;103792.03;;;0.27;79.18
55456;BME280;63021;52.836;6.376;2023-01-25T03:36:03;103785.03;;;0.27;79.38
55456;BME280;63021;52.836;6.376;2023-01-25T03:38:29;103787.66;;;0.26;78.75
55456;BME280;63021;52.836;6.376;2023-01-25T03:40:54;103778.94;;;0.24;79.50
55456;BME280;63021;52.836;6.376;2023-01-25T03:43:20;103780.69;;;0.26;78.79
55456;BME280;63021;52.836;6.376;2023-01-25T03:45:51;103779.78;;;0.26;79.36
55456;BME280;63021;52.836;6.376;2023-01-25T03:48:16;103771.94;;;0.24;78.97
55456;BME280;63021;52.836;6.376;2023-01-25T03:50:42;103771.94;;;0.26;78.99
55456;BME280;63021;52.836;6.376;2023-01-25T03:53:07;103771.06;;;0.25;79.45
55456;BME280;63021;52.836;6.376;2023-01-25T03:55:44;103771.06;;;0.25;79.26
55456;BME280;63021;52.836;6.376;2023-01-25T03:58:09;103769.31;;;0.24;79.63
55456;BME280;63021;52.836;6.376;2023-01-25T04:00:34;103758.00;;;0.22;78.84
55456;BME280;63021;52.836;6.376;2023-01-25T04:03:00;103755.38;;;0.21;78.76
55456;BME280;63021;52.836;6.376;2023-01-25T04:05:25;103755.38;;;0.21;78.65
55456;BME280;63021;52.836;6.376;2023-01-25T04:07:51;103749.28;;;0.22;79.46
55456;BME280;63021;52.836;6.376;2023-01-25T04:10:16;103738.78;;;0.22;78.91
55456;BME280;63021;52.836;6.376;2023-01-25T04:12:42;103746.66;;;0.22;78.85
55456;BME280;63021;52.836;6.376;2023-01-25T04:15:08;103742.28;;;0.22;79.56
55456;BME280;63021;52.836;6.376;2023-01-25T04:17:33;103756.25;;;0.21;78.68
55456;BME280;63021;52.836;6.376;2023-01-25T04:19:59;103744.03;;;0.23;79.16
55456;BME280;63021;52.836;6.376;2023-01-25T04:22:24;103745.78;;;0.20;78.66
55456;BME280;63021;52.836;6.376;2023-01-25T04:24:49;103744.94;;;0.16;78.81
55456;BME280;63021;52.836;6.376;2023-01-25T04:27:15;103747.56;;;0.14;78.82
55456;BME280;63021;52.836;6.376;2023-01-25T04:29:40;103749.31;;;0.11;78.60
55456;BME280;63021;52.836;6.376;2023-01-25T04:32:06;103742.31;;;0.11;79.60
55456;BME280;63021;52.836;6.376;2023-01-25T04:34:31;103743.22;;;0.12;79.39
55456;BME280;63021;52.836;6.376;2023-01-25T04:36:57;103741.47;;;0.11;78.81
55456;BME280;63021;52.836;6.376;2023-01-25T04:39:22;103743.22;;;0.12;79.08
55456;BME280;63021;52.836;6.376;2023-01-25T04:41:47;103749.31;;;0.12;79.14
55456;BME280;63021;52.836;6.376;2023-01-25T04:44:13;103740.59;;;0.12;79.43
55456;BME280;63021;52.836;6.376;2023-01-25T04:46:39;103744.94;;;0.14;79.25
55456;BME280;63021;52.836;6.376;2023-01-25T04:49:04;103741.44;;;0.14;79.53
55456;BME280;63021;52.836;6.376;2023-01-25T04:51:29;103744.06;;;0.14;78.87
55456;BME280;63021;52.836;6.376;2023-01-25T04:53:55;103747.53;;;0.13;79.54
55456;BME280;63021;52.836;6.376;2023-01-25T04:56:20;103741.44;;;0.12;79.17
55456;BME280;63021;52.836;6.376;2023-01-25T04:58:45;103744.94;;;0.14;79.11
55456;BME280;63021;52.836;6.376;2023-01-25T05:01:11;103737.94;;;0.15;78.78
55456;BME280;63021;52.836;6.376;2023-01-25T05:03:36;103730.97;;;0.14;78.95
55456;BME280;63021;52.836;6.376;2023-01-25T05:06:01;103723.13;;;0.12;78.72
55456;BME280;63021;52.836;6.376;2023-01-25T05:08:27;103727.50;;;0.12;78.94
55456;BME280;63021;52.836;6.376;2023-01-25T05:10:52;103729.22;;;0.10;78.97
55456;BME280;63021;52.836;6.376;2023-01-25T05:13:17;103729.22;;;0.10;78.34
55456;BME280;63021;52.836;6.376;2023-01-25T05:15:43;103729.25;;;0.08;78.62
55456;BME280;63021;52.836;6.376;2023-01-25T05:18:08;103727.50;;;0.09;78.86
55456;BME280;63021;52.836;6.376;2023-01-25T05:20:34;103733.59;;;0.09;79.37
55456;BME280;63021;52.836;6.376;2023-01-25T05:22:59;103726.63;;;0.07;78.88
55456;BME280;63021;52.836;6.376;2023-01-25T05:25:25;103725.75;;;0.08;79.04
55456;BME280;63021;52.836;6.376;2023-01-25T05:28:09;103732.75;;;0.09;79.29
55456;BME280;63021;52.836;6.376;2023-01-25T05:30:34;103740.59;;;0.10;78.63
55456;BME280;63021;52.836;6.376;2023-01-25T05:33:00;103727.53;;;0.07;79.44
55456;BME280;63021;52.836;6.376;2023-01-25T05:35:25;103743.22;;;0.09;78.50
55456;BME280;63021;52.836;6.376;2023-01-25T05:37:55;103726.63;;;0.08;78.56
55456;BME280;63021;52.836;6.376;2023-01-25T05:40:21;103720.53;;;0.08;78.94
55456;BME280;63021;52.836;6.376;2023-01-25T05:42:55;103724.91;;;0.07;78.78
55456;BME280;63021;52.836;6.376;2023-01-25T05:45:21;103723.16;;;0.03;78.84
55456;BME280;63021;52.836;6.376;2023-01-25T05:47:54;103727.53;;;0.03;78.75
55456;BME280;63021;52.836;6.376;2023-01-25T05:50:21;103710.09;;;0.02;78.92
55456;BME280;63021;52.836;6.376;2023-01-25T05:52:47;103713.56;;;0.01;78.88
55456;BME280;63021;52.836;6.376;2023-01-25T05:55:12;103713.56;;;0.01;78.99
55456;BME280;63021;52.836;6.376;2023-01-25T05:57:38;103705.72;;;-0.01;78.60
55456;BME280;63021;52.836;6.376;2023-01-25T06:00:04;103715.34;;;0.00;79.45
55456;BME280;63021;52.836;6.376;2023-01-25T06:02:30;103706.59;;;-0.01;78.70
55456;BME280;63021;52.836;6.376;2023-01-25T06:04:56;103714.44;;;-0.02;78.99
55456;BME280;63021;52.836;6.376;2023-01-25T06:07:22;103719.72;;;-0.05;79.15
55456;BME280;63021;52.836;6.376;2023-01-25T06:09:47;103719.72;;;-0.07;79.42
55456;BME280;63021;52.836;6.376;2023-01-25T06:12:12;103719.72;;;-0.07;79.38
55456;BME280;63021;52.836;6.376;2023-01-25T06:14:38;103722.34;;;-0.07;79.50
55456;BME280;63021;52.836;6.376;2023-01-25T06:17:03;103721.44;;;-0.07;79.46
55456;BME280;63021;52.836;6.376;2023-01-25T06:19:28;103720.59;;;-0.06;78.71
55456;BME280;63021;52.836;6.376;2023-01-25T06:21:54;103716.22;;;-0.07;78.62
55456;BME280;63021;52.836;6.376;2023-01-25T06:24:19;103717.94;;;-0.03;79.54
55456;BME280;63021;52.836;6.376;2023-01-25T06:26:45;103713.59;;;-0.01;79.44
55456;BME280;63021;52.836;6.376;2023-01-25T06:29:10;103715.31;;;-0.02;79.34
55456;BME280;63021;52.836;6.376;2023-01-25T06:31:35;103697.91;;;-0.06;79.48
55456;BME280;63021;52.836;6.376;2023-01-25T06:34:01;103701.38;;;-0.04;79.25
55456;BME280;63021;52.836;6.376;2023-01-25T06:36:30;103708.38;;;-0.06;79.37
55456;BME280;63021;52.836;6.376;2023-01-25T06:38:56;103703.13;;;-0.06;79.48
55456;BME280;63021;52.836;6.376;2023-01-25T06:41:22;103707.47;;;-0.06;78.99
55456;BME280;63021;52.836;6.376;2023-01-25T06:43:51;103704.88;;;-0.06;79.05
55456;BME280;63021;52.836;6.376;2023-01-25T06:46:17;103711.88;;;-0.07;78.82
55456;BME280;63021;52.836;6.376;2023-01-25T06:48:43;103714.47;;;-0.07;79.04
55456;BME280;63021;52.836;6.376;2023-01-25T06:51:10;103709.25;;;-0.08;79.18
55456;BME280;63021;52.836;6.376;2023-01-25T06:53:38;103717.97;;;-0.09;79.86
55456;BME280;63021;52.836;6.376;2023-01-25T06:56:10;103710.97;;;-0.09;79.09
55456;BME280;63021;52.836;6.376;2023-01-25T06:58:36;103717.97;;;-0.09;78.82
55456;BME280;63021;52.836;6.376;2023-01-25T07:01:17;103711.88;;;-0.08;79.04
55456;BME280;63021;52.836;6.376;2023-01-25T07:03:54;103702.25;;;-0.08;79.16
55456;BME280;63021;52.836;6.376;2023-01-25T07:06:20;103697.03;;;-0.09;79.52
55456;BME280;63021;52.836;6.376;2023-01-25T07:08:45;103701.38;;;-0.07;79.08
55456;BME280;63021;52.836;6.376;2023-01-25T07:11:11;103695.28;;;-0.04;79.39
55456;BME280;63021;52.836;6.376;2023-01-25T07:13:41;103690.91;;;-0.04;79.39
55456;BME280;63021;52.836;6.376;2023-01-25T07:16:10;103690.03;;;-0.03;79.12
55456;BME280;63021;52.836;6.376;2023-01-25T07:18:35;103690.91;;;-0.04;78.56
55456;BME280;63021;52.836;6.376;2023-01-25T07:21:05;103682.19;;;-0.04;79.63
55456;BME280;63021;52.836;6.376;2023-01-25T07:23:32;103687.41;;;-0.04;79.44
55456;BME280;63021;52.836;6.376;2023-01-25T07:25:59;103675.19;;;-0.04;79.57
55456;BME280;63021;52.836;6.376;2023-01-25T07:28:25;103676.91;;;-0.01;78.55
55456;BME280;63021;52.836;6.376;2023-01-25T07:30:50;103675.19;;;-0.04;79.35
55456;BME280;63021;52.836;6.376;2023-01-25T07:33:16;103672.56;;;-0.04;79.16
55456;BME280;63021;52.836;6.376;2023-01-25T07:35:41;103671.69;;;-0.04;79.18
55456;BME280;63021;52.836;6.376;2023-01-25T07:38:07;103669.94;;;-0.02;79.31
55456;BME280;63021;52.836;6.376;2023-01-25T07:40:32;103675.16;;;-0.02;79.64
55456;BME280;63021;52.836;6.376;2023-01-25T07:42:58;103673.44;;;-0.05;78.76
55456;BME280;63021;52.836;6.376;2023-01-25T07:45:23;103676.94;;;-0.03;78.70
55456;BME280;63021;52.836;6.376;2023-01-25T07:47:59;103679.56;;;-0.04;78.82
55456;BME280;63021;52.836;6.376;2023-01-25T07:50:25;103676.06;;;-0.05;79.70
55456;BME280;63021;52.836;6.376;2023-01-25T07:52:51;103677.81;;;-0.05;79.00
55456;BME280;63021;52.836;6.376;2023-01-25T07:55:16;103668.22;;;-0.08;78.44
55456;BME280;63021;52.836;6.376;2023-01-25T07:57:41;103667.34;;;-0.08;78.95
55456;BME280;63021;52.836;6.376;2023-01-25T08:00:08;103665.59;;;-0.09;78.79
55456;BME280;63021;52.836;6.376;2023-01-25T08:02:34;103665.59;;;-0.09;79.12
55456;BME280;63021;52.836;6.376;2023-01-25T08:05:00;103663.84;;;-0.10;79.67
55456;BME280;63021;52.836;6.376;2023-01-25T08:07:27;103662.13;;;-0.10;79.37
55456;BME280;63021;52.836;6.376;2023-01-25T08:09:53;103660.38;;;-0.09;79.66
55456;BME280;63021;52.836;6.376;2023-01-25T08:12:19;103649.88;;;-0.06;78.81
55456;BME280;63021;52.836;6.376;2023-01-25T08:14:44;103652.50;;;-0.06;79.66
55456;BME280;63021;52.836;6.376;2023-01-25T08:17:09;103657.72;;;-0.06;79.50
55456;BME280;63021;52.836;6.376;2023-01-25T08:19:35;103655.09;;;-0.06;78.95
55456;BME280;63021;52.836;6.376;2023-01-25T08:22:00;103651.63;;;-0.05;79.88
55456;BME280;63021;52.836;6.376;2023-01-25T08:24:26;103658.59;;;-0.04;80.13
55456;BME280;63021;52.836;6.376;2023-01-25T08:26:51;103655.09;;;-0.03;79.44
55456;BME280;63021;52.836;6.376;2023-01-25T08:29:16;103651.59;;;-0.02;79.53
55456;BME280;63021;52.836;6.376;2023-01-25T08:31:42;103654.22;;;-0.02;79.13
55456;BME280;63021;52.836;6.376;2023-01-25T08:34:09;103641.13;;;-0.04;78.65
55456;BME280;63021;52.836;6.376;2023-01-25T08:36:35;103638.53;;;-0.07;79.64
55456;BME280;63021;52.836;6.376;2023-01-25T08:39:03;103641.16;;;-0.08;79.99
55456;BME280;63021;52.836;6.376;2023-01-25T08:41:30;103631.59;;;-0.12;79.30
55456;BME280;63021;52.836;6.376;2023-01-25T08:43:57;103623.72;;;-0.11;79.33
55456;BME280;63021;52.836;6.376;2023-01-25T08:46:25;103627.19;;;-0.09;79.25
55456;BME280;63021;52.836;6.376;2023-01-25T08:48:54;103635.03;;;-0.09;79.26
55456;BME280;63021;52.836;6.376;2023-01-25T08:51:21;103625.47;;;-0.08;79.14
55456;BME280;63021;52.836;6.376;2023-01-25T08:53:46;103621.94;;;-0.09;79.62
55456;BME280;63021;52.836;6.376;2023-01-25T08:56:14;103619.31;;;-0.09;79.46
55456;BME280;63021;52.836;6.376;2023-01-25T08:58:45;103621.97;;;-0.10;79.21
55456;BME280;63021;52.836;6.376;2023-01-25T09:01:12;103620.25;;;-0.11;79.08
55456;BME280;63021;52.836;6.376;2023-01-25T09:03:41;103615.00;;;-0.11;79.33
55456;BME280;63021;52.836;6.376;2023-01-25T09:06:07;103617.63;;;-0.11;79.35
55456;BME280;63021;52.836;6.376;2023-01-25T09:08:34;103607.16;;;-0.16;79.92
55456;BME280;63021;52.836;6.376;2023-01-25T09:11:01;103614.13;;;-0.13;79.94
55456;BME280;63021;52.836;6.376;2023-01-25T09:13:27;103608.88;;;-0.12;79.86
55456;BME280;63021;52.836;6.376;2023-01-25T09:15:58;103618.47;;;-0.09;79.46
55456;BME280;63021;52.836;6.376;2023-01-25T09:18:23;103621.09;;;-0.11;79.28
55456;BME280;63021;52.836;6.376;2023-01-25T09:20:49;103615.88;;;-0.11;79.31
55456;BME280;63021;52.836;6.376;2023-01-25T09:23:14;103612.38;;;-0.10;79.50
55456;BME280;63021;52.836;6.376;2023-01-25T09:25:39;103609.75;;;-0.08;79.82
55456;BME280;63021;52.836;6.376;2023-01-25T09:28:05;103607.97;;;-0.08;79.58
55456;BME280;63021;52.836;6.376;2023-01-25T09:30:36;103611.47;;;-0.07;79.24
55456;BME280;63021;52.836;6.376;2023-01-25T09:33:01;103600.16;;;-0.11;79.21
55456;BME280;63021;52.836;6.376;2023-01-25T09:35:29;103598.38;;;-0.09;79.35
55456;BME280;63021;52.836;6.376;2023-01-25T09:37:55;103598.38;;;-0.09;79.48
55456;BME280;63021;52.836;6.376;2023-01-25T09:40:22;103594.91;;;-0.11;80.15
55456;BME280;63021;52.836;6.376;2023-01-25T09:45:51;103594.06;;;-0.16;79.71
55456;BME280;63021;52.836;6.376;2023-01-25T09:48:40;103583.56;;;-0.14;79.66
55456;BME280;63021;52.836;6.376;2023-01-25T09:52:02;103590.56;;;-0.12;79.89
55456;BME280;63021;52.836;6.376;2023-01-25T09:54:30;103581.84;;;-0.15;79.40
55456;BME280;63021;52.836;6.376;2023-01-25T09:57:00;103577.47;;;-0.15;80.10
55456;BME280;63021;52.836;6.376;2023-01-25T09:59:27;103571.38;;;-0.15;79.45
55456;BME280;63021;52.836;6.376;2023-01-25T10:02:30;103567.03;;;-0.16;80.26
55456;BME280;63021;52.836;6.376;2023-01-25T10:05:10;103565.25;;;-0.14;79.43
55456;BME280;63021;52.836;6.376;2023-01-25T10:10:10;103567.88;;;-0.13;79.52
55456;BME280;63021;52.836;6.376;2023-01-25T10:12:39;103564.34;;;-0.10;79.51
55456;BME280;63021;52.836;6.376;2023-01-25T10:15:22;103565.25;;;-0.11;80.19
55456;BME280;63021;52.836;6.376;2023-01-25T10:18:09;103553.03;;;-0.11;79.59
55456;BME280;63021;52.836;6.376;2023-01-25T10:21:11;103554.75;;;-0.08;79.91
55456;BME280;63021;52.836;6.376;2023-01-25T10:26:26;103543.41;;;-0.10;79.68
55456;BME280;63021;52.836;6.376;2023-01-25T10:29:18;103540.78;;;-0.12;80.18
55456;BME280;63021;52.836;6.376;2023-01-25T10:31:53;103531.22;;;-0.16;79.95
55456;BME280;63021;52.836;6.376;2023-01-25T10:34:19;103522.50;;;-0.15;79.51
55456;BME280;63021;52.836;6.376;2023-01-25T10:37:03;103525.13;;;-0.16;79.99
55456;BME280;63021;52.836;6.376;2023-01-25T10:39:38;103526.84;;;-0.12;79.66
55456;BME280;63021;52.836;6.376;2023-01-25T10:42:10;103519.84;;;-0.12;79.59
55456;BME280;63021;52.836;6.376;2023-01-25T10:44:36;103511.13;;;-0.11;80.00
55456;BME280;63021;52.836;6.376;2023-01-25T10:49:57;103509.34;;;-0.09;80.36
55456;BME280;63021;52.836;6.376;2023-01-25T10:52:28;103503.25;;;-0.09;80.56
55456;BME280;63021;52.836;6.376;2023-01-25T10:55:20;103507.63;;;-0.08;79.60
55456;BME280;63021;52.836;6.376;2023-01-25T10:57:52;103494.53;;;-0.10;80.42
55456;BME280;63021;52.836;6.376;2023-01-25T11:00:25;103490.16;;;-0.08;80.33
55456;BME280;63021;52.836;6.376;2023-01-25T11:02:52;103477.03;;;-0.06;80.32
55456;BME280;63021;52.836;6.376;2023-01-25T11:07:44;103471.75;;;-0.02;79.72
55456;BME280;63021;52.836;6.376;2023-01-25T11:10:29;103464.75;;;0.02;80.23
55456;BME280;63021;52.836;6.376;2023-01-25T11:15:44;103459.53;;;0.01;79.92
55456;BME280;63021;52.836;6.376;2023-01-25T11:18:28;103455.16;;;0.01;80.68
55456;BME280;63021;52.836;6.376;2023-01-25T11:21:12;103445.56;;;-0.02;79.96
55456;BME280;63021;52.836;6.376;2023-01-25T11:23:43;103439.47;;;-0.02;80.29
55456;BME280;63021;52.836;6.376;2023-01-25T11:26:21;103429.00;;;-0.02;79.47
55456;BME280;63021;52.836;6.376;2023-01-25T11:28:47;103428.97;;;0.01;79.60
55456;BME280;63021;52.836;6.376;2023-01-25T11:31:15;103421.06;;;0.04;80.38
55456;BME280;63021;52.836;6.376;2023-01-25T11:33:41;103414.97;;;0.05;80.41
55456;BME280;63021;52.836;6.376;2023-01-25T11:36:42;103409.66;;;0.10;80.10
55456;BME280;63021;52.836;6.376;2023-01-25T11:39:28;103389.59;;;0.10;80.28
55456;BME280;63021;52.836;6.376;2023-01-25T11:47:27;103372.09;;;0.14;80.58
55456;BME280;63021;52.836;6.376;2023-01-25T11:50:14;103365.13;;;0.14;80.85
55456;BME280;63021;52.836;6.376;2023-01-25T12:01:04;103333.63;;;0.17;80.39
55456;BME280;63021;52.836;6.376;2023-01-25T12:03:55;103328.44;;;0.14;80.06
55456;BME280;63021;52.836;6.376;2023-01-25T12:09:45;103331.03;;;0.16;79.52
55456;BME280;63021;52.836;6.376;2023-01-25T12:18:25;103310.09;;;0.16;79.61
55456;BME280;63021;52.836;6.376;2023-01-25T12:28:51;103286.50;;;0.16;80.39
55456;BME280;63021;52.836;6.376;2023-01-25T12:31:34;103275.13;;;0.15;79.70
55456;BME280;63021;52.836;6.376;2023-01-25T12:34:20;103269.03;;;0.16;80.68
55456;BME280;63021;52.836;6.376;2023-01-25T12:36:47;103264.63;;;0.19;79.97
55456;BME280;63021;52.836;6.376;2023-01-25T12:41:59;103262.88;;;0.19;80.44
55456;BME280;63021;52.836;6.376;2023-01-25T12:44:39;103248.88;;;0.20;80.16
55456;BME280;63021;52.836;6.376;2023-01-25T12:47:21;103244.53;;;0.21;80.03
55456;BME280;63021;52.836;6.376;2023-01-25T12:50:00;103239.31;;;0.19;80.40
55456;BME280;63021;52.836;6.376;2023-01-25T12:52:33;103233.16;;;0.20;80.61
55456;BME280;63021;52.836;6.376;2023-01-25T12:55:01;103234.06;;;0.19;80.26
55456;BME280;63021;52.836;6.376;2023-01-25T13:05:28;103237.63;;;0.15;80.17
55456;BME280;63021;52.836;6.376;2023-01-25T13:10:39;103228.06;;;0.11;80.29
55456;BME280;63021;52.836;6.376;2023-01-25T13:13:22;103223.66;;;0.13;80.92
55456;BME280;63021;52.836;6.376;2023-01-25T13:15:48;103223.69;;;0.11;79.98
55456;BME280;63021;52.836;6.376;2023-01-25T13:20:51;103210.59;;;0.11;80.09
55456;BME280;63021;52.836;6.376;2023-01-25T13:23:32;103206.22;;;0.12;80.70
55456;BME280;63021;52.836;6.376;2023-01-25T13:28:45;103198.31;;;0.15;80.51
55456;BME280;63021;52.836;6.376;2023-01-25T13:34:02;103196.53;;;0.17;80.85
55456;BME280;63021;52.836;6.376;2023-01-25T13:42:02;103168.69;;;0.10;80.95
55456;BME280;63021;52.836;6.376;2023-01-25T13:44:30;103180.91;;;0.11;81.00
55456;BME280;63021;52.836;6.376;2023-01-25T13:47:00;103171.31;;;0.10;80.50
55456;BME280;63021;52.836;6.376;2023-01-25T13:49:33;103173.09;;;0.09;80.44
55456;BME280;63021;52.836;6.376;2023-01-25T13:52:01;103168.69;;;0.11;80.92
55456;BME280;63021;52.836;6.376;2023-01-25T13:54:28;103171.31;;;0.10;80.35
55456;BME280;63021;52.836;6.376;2023-01-25T13:57:11;103164.38;;;0.09;80.48
55456;BME280;63021;52.836;6.376;2023-01-25T13:59:36;103158.25;;;0.08;80.05
55456;BME280;63021;52.836;6.376;2023-01-25T14:02:02;103156.53;;;0.06;80.64
55456;BME280;63021;52.836;6.376;2023-01-25T14:04:28;103157.47;;;0.03;80.61
55456;BME280;63021;52.836;6.376;2023-01-25T14:06:58;103154.88;;;0.00;80.60
55456;BME280;63021;52.836;6.376;2023-01-25T14:09:25;103154.00;;;-0.01;80.71
55456;BME280;63021;52.836;6.376;2023-01-25T14:11:54;103161.88;;;-0.01;80.33
55456;BME280;63021;52.836;6.376;2023-01-25T14:14:33;103155.78;;;-0.03;81.11
55456;BME280;63021;52.836;6.376;2023-01-25T14:19:40;103148.84;;;-0.05;80.30
55456;BME280;63021;52.836;6.376;2023-01-25T14:22:23;103153.22;;;-0.06;81.07